createdAt,value
2019-02-26T00:01:08.852Z,2.22
2019-02-26T00:03:38.129Z,2.12
2019-02-26T00:06:07.319Z,2.16
2019-02-26T00:08:36.593Z,2.31
2019-02-26T00:11:08.279Z,2.39
2019-02-26T00:13:36.785Z,2.26
2019-02-26T00:16:08.005Z,2.10
2019-02-26T00:18:37.013Z,2.17
2019-02-26T00:21:06.159Z,2.11
2019-02-26T00:23:35.361Z,1.99
2019-02-26T00:26:04.483Z,1.93
2019-02-26T00:28:34.248Z,1.90
2019-02-26T00:31:05.989Z,1.95
2019-02-26T00:33:35.559Z,1.92
2019-02-26T00:36:06.623Z,1.97
2019-02-26T00:38:37.524Z,1.93
2019-02-26T00:41:06.451Z,1.94
2019-02-26T00:43:36.949Z,2.05
2019-02-26T00:46:08.058Z,1.85
2019-02-26T00:48:38.878Z,2.02
2019-02-26T00:51:08.098Z,2.03
2019-02-26T00:53:37.252Z,1.84
2019-02-26T00:56:08.008Z,1.70
2019-02-26T00:58:39.198Z,1.70
2019-02-26T01:01:12.204Z,1.63
2019-02-26T01:03:40.705Z,1.67
2019-02-26T01:06:10.363Z,1.64
2019-02-26T01:08:40.254Z,1.65
2019-02-26T01:11:10.563Z,1.69
2019-02-26T01:13:39.744Z,1.63
2019-02-26T01:16:09.167Z,1.51
2019-02-26T01:18:38.366Z,1.72
2019-02-26T01:21:07.527Z,1.67
2019-02-26T01:23:36.790Z,1.46
2019-02-26T01:26:05.984Z,1.57
2019-02-26T01:28:35.173Z,1.40
2019-02-26T01:31:05.031Z,1.46
2019-02-26T01:33:35.285Z,1.53
2019-02-26T01:36:04.485Z,1.39
2019-02-26T01:38:37.427Z,1.32
2019-02-26T01:41:04.579Z,1.25
2019-02-26T01:43:33.713Z,1.62
2019-02-26T01:46:03.158Z,1.72
2019-02-26T01:48:34.347Z,1.47
2019-02-26T01:51:03.420Z,1.30
2019-02-26T01:53:32.613Z,1.19
2019-02-26T01:56:04.581Z,1.36
2019-02-26T01:58:33.648Z,1.47
2019-02-26T02:01:03.399Z,1.49
2019-02-26T02:03:32.696Z,1.56
2019-02-26T02:06:02.021Z,1.58
2019-02-26T02:08:31.327Z,1.59
2019-02-26T02:11:02.449Z,1.53
2019-02-26T02:13:33.115Z,1.48
2019-02-26T02:16:04.366Z,1.43
2019-02-26T02:18:33.186Z,1.43
2019-02-26T02:21:02.332Z,1.30
2019-02-26T02:23:31.592Z,1.15
2019-02-26T02:26:04.488Z,1.11
2019-02-26T02:28:35.470Z,1.08
2019-02-26T02:31:04.653Z,1.08
2019-02-26T02:33:35.441Z,1.04
2019-02-26T02:36:04.689Z,1.06
2019-02-26T02:38:36.488Z,1.18
2019-02-26T02:41:04.751Z,1.12
2019-02-26T02:43:33.912Z,1.30
2019-02-26T02:46:03.144Z,1.19
2019-02-26T02:48:32.317Z,1.02
2019-02-26T02:51:02.171Z,0.99
2019-02-26T02:53:32.520Z,1.04
2019-02-26T02:56:03.540Z,0.93
2019-02-26T02:58:32.618Z,0.92
2019-02-26T03:01:01.822Z,0.96
2019-02-26T03:03:31.120Z,1.06
2019-02-26T03:06:01.777Z,1.04
2019-02-26T03:08:31.172Z,1.13
2019-02-26T03:11:00.343Z,0.99
2019-02-26T03:13:29.474Z,0.96
2019-02-26T03:16:01.058Z,0.82
2019-02-26T03:18:29.581Z,0.67
2019-02-26T03:20:59.947Z,0.73
2019-02-26T03:23:31.399Z,0.71
2019-02-26T03:26:00.922Z,0.61
2019-02-26T03:28:34.823Z,0.57
2019-02-26T03:31:01.574Z,0.60
2019-02-26T03:33:30.769Z,0.78
2019-02-26T03:35:59.983Z,0.68
2019-02-26T03:38:29.133Z,0.62
2019-02-26T03:41:01.113Z,0.52
2019-02-26T03:43:31.439Z,0.47
2019-02-26T03:46:00.438Z,0.49
2019-02-26T03:48:29.627Z,0.58
2019-02-26T03:51:01.309Z,0.50
2019-02-26T03:53:31.339Z,0.42
2019-02-26T03:56:04.591Z,0.51
2019-02-26T03:58:33.927Z,0.44
2019-02-26T04:01:07.344Z,0.60
2019-02-26T04:03:35.271Z,0.71
2019-02-26T04:06:08.780Z,0.63
2019-02-26T04:08:36.171Z,0.42
2019-02-26T04:11:05.337Z,0.29
2019-02-26T04:13:34.491Z,0.18
2019-02-26T04:16:04.557Z,0.10
2019-02-26T04:18:34.793Z,0.19
2019-02-26T04:21:05.927Z,0.18
2019-02-26T04:23:36.072Z,0.13
2019-02-26T04:26:36.017Z,0.08
2019-02-26T04:29:20.548Z,0.21
2019-02-26T04:32:40.869Z,0.21
2019-02-26T04:35:47.703Z,0.26
2019-02-26T04:38:59.632Z,0.23
2019-02-26T04:41:38.446Z,-0.09
2019-02-26T04:44:34.279Z,-0.04
2019-02-26T04:47:26.921Z,-0.09
2019-02-26T04:49:58.161Z,-0.15
2019-02-26T04:52:29.579Z,-0.08
2019-02-26T04:54:59.072Z,-0.18
2019-02-26T04:57:28.268Z,-0.30
2019-02-26T04:59:59.122Z,-0.17
2019-02-26T05:02:28.601Z,-0.26
2019-02-26T05:04:57.797Z,-0.29
2019-02-26T05:07:28.336Z,-0.32
2019-02-26T05:09:59.428Z,-0.28
2019-02-26T05:12:30.971Z,-0.24
2019-02-26T05:14:59.479Z,-0.30
2019-02-26T05:17:30.806Z,-0.34
2019-02-26T05:19:59.527Z,-0.45
2019-02-26T05:22:31.036Z,-0.31
2019-02-26T05:24:59.714Z,-0.18
2019-02-26T05:27:30.385Z,-0.22
2019-02-26T05:29:59.606Z,-0.27
2019-02-26T05:32:30.941Z,-0.33
2019-02-26T05:34:59.714Z,-0.47
2019-02-26T05:37:32.606Z,-0.56
2019-02-26T05:40:01.261Z,-0.67
2019-02-26T05:42:30.457Z,-0.68
2019-02-26T05:45:02.799Z,-0.74
2019-02-26T05:47:30.630Z,-0.59
2019-02-26T05:50:02.249Z,-0.68
2019-02-26T05:52:33.219Z,-0.68
2019-02-26T05:55:01.981Z,-0.76
2019-02-26T05:57:32.475Z,-0.79
2019-02-26T06:00:02.397Z,-0.83
2019-02-26T06:02:31.692Z,-0.81
2019-02-26T06:05:02.474Z,-0.73
2019-02-26T06:07:35.542Z,-0.70
2019-02-26T06:10:02.971Z,-0.76
2019-02-26T06:12:32.648Z,-0.74
2019-02-26T06:15:05.868Z,-0.67
2019-02-26T06:17:37.907Z,-0.66
2019-02-26T06:20:26.162Z,-0.77
2019-02-26T06:22:55.162Z,-0.80
2019-02-26T06:25:24.781Z,-0.83
2019-02-26T06:27:53.999Z,-0.59
2019-02-26T06:30:27.577Z,-0.51
2019-02-26T06:32:59.715Z,-0.56
2019-02-26T06:35:28.004Z,-0.59
2019-02-26T06:37:57.320Z,-0.55
2019-02-26T06:40:26.507Z,-0.46
2019-02-26T06:42:55.715Z,-0.41
2019-02-26T06:45:24.903Z,-0.23
2019-02-26T06:47:56.084Z,-0.38
2019-02-26T06:50:25.016Z,-0.44
2019-02-26T06:52:54.172Z,-0.36
2019-02-26T06:55:23.379Z,-0.40
2019-02-26T06:57:55.002Z,-0.44
2019-02-26T07:00:25.285Z,-0.39
2019-02-26T07:02:54.462Z,-0.08
2019-02-26T07:05:24.600Z,-0.06
2019-02-26T07:07:55.059Z,-0.11
2019-02-26T07:10:26.731Z,-0.17
2019-02-26T07:12:55.938Z,-0.01
2019-02-26T07:15:28.795Z,0.12
2019-02-26T07:18:00.061Z,0.30
2019-02-26T07:20:33.855Z,0.48
2019-02-26T07:22:58.014Z,0.40
2019-02-26T07:25:27.273Z,0.46
2019-02-26T07:27:58.767Z,0.44
2019-02-26T07:30:29.642Z,0.57
2019-02-26T07:32:58.813Z,0.64
2019-02-26T07:35:28.825Z,0.74
2019-02-26T07:37:59.518Z,0.75
2019-02-26T07:40:30.517Z,0.77
2019-02-26T07:43:04.932Z,1.02
2019-02-26T07:45:32.335Z,0.98
2019-02-26T07:48:05.615Z,1.02
2019-02-26T07:50:38.276Z,1.08
2019-02-26T07:53:05.897Z,1.10
2019-02-26T07:55:35.881Z,1.19
2019-02-26T07:58:06.846Z,1.30
2019-02-26T08:00:37.752Z,1.41
2019-02-26T08:03:07.898Z,1.60
2019-02-26T08:05:37.076Z,1.82
2019-02-26T08:08:06.253Z,1.91
2019-02-26T08:10:39.431Z,2.06
2019-02-26T08:13:08.009Z,2.19
2019-02-26T08:15:37.629Z,2.33
2019-02-26T08:18:08.164Z,2.59
2019-02-26T08:20:39.702Z,2.74
2019-02-26T08:23:08.225Z,2.98
2019-02-26T08:25:37.417Z,3.26
2019-02-26T08:28:08.435Z,3.39
2019-02-26T08:30:40.200Z,3.48
2019-02-26T08:33:08.817Z,3.61
2019-02-26T08:35:38.005Z,3.75
2019-02-26T08:38:07.198Z,3.94
2019-02-26T08:40:36.989Z,4.25
2019-02-26T08:43:06.193Z,4.37
2019-02-26T08:45:35.537Z,4.61
2019-02-26T08:48:04.693Z,4.84
2019-02-26T08:50:36.162Z,5.03
2019-02-26T08:53:05.268Z,5.07
2019-02-26T08:55:34.457Z,5.08
2019-02-26T08:58:03.696Z,5.09
2019-02-26T09:00:34.340Z,5.20
2019-02-26T09:03:03.620Z,5.60
2019-02-26T09:05:34.502Z,5.87
2019-02-26T09:08:05.650Z,6.23
2019-02-26T09:10:38.286Z,6.46
2019-02-26T09:13:09.328Z,6.68
2019-02-26T09:15:40.328Z,6.71
2019-02-26T09:18:09.021Z,6.70
2019-02-26T09:20:38.169Z,6.85
2019-02-26T09:23:07.388Z,7.12
2019-02-26T09:25:36.525Z,7.26
2019-02-26T09:28:05.734Z,7.39
2019-02-26T09:30:35.919Z,7.60
2019-02-26T09:33:08.328Z,7.76
2019-02-26T09:35:37.057Z,7.97
2019-02-26T09:38:06.275Z,8.15
2019-02-26T09:40:37.711Z,8.39
2019-02-26T09:43:06.882Z,8.46
2019-02-26T09:45:36.109Z,8.58
2019-02-26T09:48:05.443Z,8.77
2019-02-26T09:50:36.761Z,8.96
2019-02-26T09:53:05.940Z,9.12
2019-02-26T09:55:35.135Z,9.29
2019-02-26T09:58:04.382Z,9.34
2019-02-26T10:00:33.603Z,9.48
2019-02-26T10:03:03.474Z,9.59
2019-02-26T10:05:34.082Z,9.76
2019-02-26T10:08:05.266Z,9.91
2019-02-26T10:10:36.943Z,10.14
2019-02-26T10:13:05.408Z,10.61
2019-02-26T10:15:35.467Z,10.88
2019-02-26T10:18:07.250Z,10.82
2019-02-26T10:20:36.420Z,10.96
2019-02-26T10:23:06.376Z,11.20
2019-02-26T10:25:38.690Z,11.28
2019-02-26T10:28:09.662Z,11.53
2019-02-26T10:30:41.634Z,11.65
2019-02-26T10:33:10.289Z,11.81
2019-02-26T10:35:42.037Z,11.97
2019-02-26T10:38:11.514Z,12.22
2019-02-26T10:40:53.429Z,12.30
2019-02-26T10:43:11.974Z,12.40
2019-02-26T10:45:42.396Z,12.42
2019-02-26T10:48:13.771Z,12.66
2019-02-26T10:50:46.974Z,12.84
2019-02-26T10:53:16.351Z,13.03
2019-02-26T10:55:45.022Z,13.19
2019-02-26T10:59:18.772Z,13.34
2019-02-26T11:01:49.014Z,13.42
2019-02-26T11:05:27.766Z,13.41
2019-02-26T11:07:47.022Z,13.53
2019-02-26T11:10:20.974Z,13.72
2019-02-26T11:12:50.519Z,13.51
2019-02-26T11:15:22.019Z,13.75
2019-02-26T11:17:53.191Z,13.89
2019-02-26T11:20:24.225Z,14.09
2019-02-26T11:22:52.934Z,13.89
2019-02-26T11:25:24.194Z,13.96
2019-02-26T11:27:53.120Z,14.20
2019-02-26T11:30:28.540Z,14.36
2019-02-26T11:32:58.705Z,14.57
2019-02-26T11:35:27.632Z,14.16
2019-02-26T11:37:57.740Z,14.47
2019-02-26T11:40:30.507Z,14.51
2019-02-26T11:43:00.190Z,14.65
2019-02-26T11:45:29.634Z,14.58
2019-02-26T11:48:00.997Z,14.73
2019-02-26T11:50:29.787Z,14.86
2019-02-26T11:52:59.281Z,15.00
2019-02-26T11:55:31.388Z,14.88
2019-02-26T11:57:59.465Z,14.96
2019-02-26T12:00:42.069Z,14.90
2019-02-26T12:03:33.350Z,15.01
2019-02-26T12:05:56.718Z,15.29
2019-02-26T12:08:32.759Z,15.07
2019-02-26T12:11:03.973Z,15.10
2019-02-26T12:13:33.091Z,15.39
2019-02-26T12:16:02.280Z,15.52
2019-02-26T12:18:31.432Z,15.69
2019-02-26T12:21:02.703Z,15.86
2019-02-26T12:23:31.516Z,15.69
2019-02-26T12:26:02.082Z,15.60
2019-02-26T12:28:32.430Z,16.09
2019-02-26T12:31:04.289Z,16.74
2019-02-26T12:33:34.414Z,17.39
2019-02-26T12:36:05.265Z,17.12
2019-02-26T12:38:36.656Z,17.98
2019-02-26T12:41:08.601Z,19.31
2019-02-26T12:43:37.457Z,20.03
2019-02-26T12:46:08.483Z,20.34
2019-02-26T12:48:41.867Z,19.48
2019-02-26T12:51:08.991Z,18.61
2019-02-26T12:53:49.952Z,19.93
2019-02-26T12:56:20.571Z,20.97
2019-02-26T12:58:52.025Z,21.18
2019-02-26T13:01:19.826Z,21.12
2019-02-26T13:03:54.030Z,21.28
2019-02-26T13:06:22.839Z,21.42
2019-02-26T13:08:50.924Z,21.04
2019-02-26T13:11:23.341Z,20.47
2019-02-26T13:13:53.270Z,21.60
2019-02-26T13:16:22.608Z,21.73
2019-02-26T13:18:56.615Z,21.93
2019-02-26T13:21:23.068Z,21.44
2019-02-26T13:23:52.220Z,19.83
2019-02-26T13:26:22.551Z,18.80
2019-02-26T13:28:52.997Z,19.22
2019-02-26T13:31:22.981Z,21.07
2019-02-26T13:33:52.358Z,21.80
2019-02-26T13:36:21.866Z,22.22
2019-02-26T13:38:51.043Z,22.80
2019-02-26T13:41:29.273Z,22.95
2019-02-26T13:43:51.777Z,22.90
2019-02-26T13:46:21.123Z,23.06
2019-02-26T13:48:50.398Z,23.24
2019-02-26T13:51:19.722Z,23.09
2019-02-26T13:53:48.940Z,23.53
2019-02-26T13:56:18.184Z,21.69
2019-02-26T13:58:47.358Z,19.59
2019-02-26T14:01:16.664Z,19.78
2019-02-26T14:03:45.984Z,21.63
2019-02-26T14:06:15.254Z,21.75
2019-02-26T14:08:44.465Z,21.54
2019-02-26T14:11:13.764Z,22.81
2019-02-26T14:13:43.032Z,23.41
2019-02-26T14:16:12.249Z,24.92
2019-02-26T14:18:41.453Z,25.04
2019-02-26T14:21:10.649Z,25.26
2019-02-26T14:23:39.845Z,24.58
2019-02-26T14:26:09.165Z,22.44
2019-02-26T14:28:38.493Z,20.20
2019-02-26T14:31:07.654Z,19.84
2019-02-26T14:33:37.131Z,18.90
2019-02-26T14:36:06.290Z,19.76
2019-02-26T14:38:35.667Z,19.56
2019-02-26T14:41:05.240Z,19.07
2019-02-26T14:43:34.352Z,19.08
2019-02-26T14:46:03.596Z,19.85
2019-02-26T14:48:32.768Z,19.89
2019-02-26T14:51:01.932Z,20.69
2019-02-26T14:53:31.221Z,23.47
2019-02-26T14:56:00.386Z,24.44
2019-02-26T14:58:29.637Z,24.90
2019-02-26T15:01:00.401Z,23.22
2019-02-26T15:03:29.885Z,24.35
2019-02-26T15:05:59.187Z,24.44
2019-02-26T15:08:28.551Z,24.41
2019-02-26T15:10:57.858Z,22.56
2019-02-26T15:13:27.494Z,20.86
2019-02-26T15:15:56.675Z,18.85
2019-02-26T15:18:25.940Z,19.91
2019-02-26T15:20:55.150Z,21.10
2019-02-26T15:23:24.609Z,20.57
2019-02-26T15:25:53.812Z,18.75
2019-02-26T15:28:22.979Z,18.14
2019-02-26T15:30:52.178Z,18.44
2019-02-26T15:33:21.498Z,17.53
2019-02-26T15:35:50.652Z,17.78
2019-02-26T15:38:19.952Z,17.47
2019-02-26T15:40:51.161Z,17.14
2019-02-26T15:43:20.036Z,16.78
2019-02-26T15:45:51.963Z,16.58
2019-02-26T15:48:20.242Z,16.77
2019-02-26T15:50:49.417Z,16.54
2019-02-26T15:53:18.641Z,16.50
2019-02-26T15:55:47.831Z,16.26
2019-02-26T15:58:17.038Z,16.12
2019-02-26T16:00:46.309Z,16.15
2019-02-26T16:03:15.660Z,16.01
2019-02-26T16:05:44.906Z,16.01
2019-02-26T16:08:14.205Z,15.89
2019-02-26T16:10:43.666Z,15.67
2019-02-26T16:13:12.930Z,15.47
2019-02-26T16:15:42.262Z,15.41
2019-02-26T16:18:11.476Z,15.34
2019-02-26T16:20:40.853Z,15.46
2019-02-26T16:23:10.062Z,15.17
2019-02-26T16:25:39.280Z,15.07
2019-02-26T16:28:08.573Z,14.91
2019-02-26T16:30:38.119Z,14.72
2019-02-26T16:33:07.316Z,14.75
2019-02-26T16:35:36.467Z,14.60
2019-02-26T16:38:05.853Z,14.36
2019-02-26T16:40:35.003Z,14.20
2019-02-26T16:43:04.480Z,14.12
2019-02-26T16:45:35.146Z,13.91
2019-02-26T16:48:04.522Z,13.73
2019-02-26T16:50:33.962Z,13.42
2019-02-26T16:53:03.315Z,13.22
2019-02-26T16:55:32.713Z,13.10
2019-02-26T16:58:03.256Z,12.92
2019-02-26T17:00:32.712Z,12.83
2019-02-26T17:03:02.721Z,12.76
2019-02-26T17:05:32.049Z,12.42
2019-02-26T17:08:01.747Z,12.20
2019-02-26T17:10:31.249Z,12.09
2019-02-26T17:13:02.332Z,11.93
2019-02-26T17:15:31.365Z,11.75
2019-02-26T17:18:00.643Z,11.56
2019-02-26T17:20:29.962Z,11.48
2019-02-26T17:22:59.299Z,11.18
2019-02-26T17:25:29.018Z,10.97
2019-02-26T17:27:58.681Z,10.79
2019-02-26T17:30:27.960Z,10.62
2019-02-26T17:32:57.130Z,10.48
2019-02-26T17:35:28.586Z,10.25
2019-02-26T17:37:57.301Z,10.07
2019-02-26T17:40:26.564Z,9.95
2019-02-26T17:42:55.756Z,9.90
2019-02-26T17:45:25.057Z,9.86
2019-02-26T17:47:56.810Z,9.68
2019-02-26T17:50:28.374Z,9.51
2019-02-26T17:52:57.833Z,9.38
2019-02-26T17:55:27.276Z,9.31
2019-02-26T17:57:56.483Z,9.12
2019-02-26T18:00:26.410Z,8.96
2019-02-26T18:02:55.570Z,8.87
2019-02-26T18:05:24.832Z,8.74
2019-02-26T18:07:53.990Z,8.64
2019-02-26T18:10:23.304Z,8.58
2019-02-26T18:12:53.909Z,8.51
2019-02-26T18:15:23.439Z,8.37
2019-02-26T18:17:52.677Z,8.27
2019-02-26T18:20:21.916Z,8.14
2019-02-26T18:22:51.085Z,8.05
2019-02-26T18:25:20.310Z,7.95
2019-02-26T18:27:49.808Z,7.93
2019-02-26T18:30:20.884Z,7.82
2019-02-26T18:32:50.726Z,7.71
2019-02-26T18:35:21.171Z,7.70
2019-02-26T18:37:50.504Z,7.61
2019-02-26T18:40:20.022Z,7.52
2019-02-26T18:42:49.206Z,7.44
2019-02-26T18:45:20.317Z,7.36
2019-02-26T18:47:49.548Z,7.29
2019-02-26T18:50:19.295Z,7.28
2019-02-26T18:52:48.575Z,7.17
2019-02-26T18:55:18.683Z,7.11
2019-02-26T18:57:48.104Z,7.03
2019-02-26T19:00:19.700Z,6.94
2019-02-26T19:02:49.073Z,6.81
2019-02-26T19:05:20.812Z,6.71
2019-02-26T19:07:49.580Z,6.59
2019-02-26T19:10:20.865Z,6.54
2019-02-26T19:12:50.301Z,6.45
2019-02-26T19:15:19.969Z,6.31
2019-02-26T19:17:50.669Z,6.22
2019-02-26T19:20:22.412Z,6.17
2019-02-26T19:22:52.198Z,6.12
2019-02-26T19:25:21.466Z,6.09
2019-02-26T19:27:53.189Z,6.12
2019-02-26T19:30:23.575Z,6.02
2019-02-26T19:32:52.893Z,6.07
2019-02-26T19:35:22.161Z,5.89
2019-02-26T19:37:55.123Z,5.79
2019-02-26T19:40:26.937Z,5.67
2019-02-26T19:42:56.410Z,5.63
2019-02-26T19:45:25.906Z,5.61
2019-02-26T19:47:56.076Z,5.57
2019-02-26T19:50:26.053Z,5.52
2019-02-26T19:52:57.160Z,5.61
2019-02-26T19:55:28.939Z,5.54
2019-02-26T19:57:58.209Z,5.43
2019-02-26T20:00:27.505Z,5.34
2019-02-26T20:02:56.763Z,5.28
2019-02-26T20:05:26.056Z,5.17
2019-02-26T20:07:56.798Z,5.21
2019-02-26T20:10:26.050Z,5.21
2019-02-26T20:12:55.278Z,5.06
2019-02-26T20:15:24.586Z,4.94
2019-02-26T20:17:55.463Z,4.91
2019-02-26T20:20:24.736Z,4.83
2019-02-26T20:22:54.019Z,4.80
2019-02-26T20:25:23.750Z,4.86
2019-02-26T20:27:54.783Z,4.82
2019-02-26T20:30:24.407Z,5.04
2019-02-26T20:32:55.953Z,4.78
2019-02-26T20:35:25.324Z,4.67
2019-02-26T20:37:58.634Z,4.59
2019-02-26T20:40:28.444Z,4.58
2019-02-26T20:43:01.284Z,4.71
2019-02-26T20:45:28.880Z,4.64
2019-02-26T20:48:03.858Z,4.52
2019-02-26T20:50:31.856Z,4.39
2019-02-26T20:53:05.590Z,4.26
2019-02-26T20:55:35.303Z,4.26
2019-02-26T20:58:05.363Z,4.14
2019-02-26T21:00:34.801Z,4.31
2019-02-26T21:03:04.258Z,4.11
2019-02-26T21:05:34.658Z,4.09
2019-02-26T21:08:05.224Z,3.96
2019-02-26T21:10:34.543Z,4.09
2019-02-26T21:13:04.052Z,3.88
2019-02-26T21:15:33.088Z,3.82
2019-02-26T21:18:02.957Z,3.88
2019-02-26T21:20:32.187Z,3.95
2019-02-26T21:23:02.554Z,3.69
2019-02-26T21:25:31.831Z,3.66
2019-02-26T21:28:05.376Z,3.56
2019-02-26T21:30:34.842Z,3.69
2019-02-26T21:33:04.099Z,3.61
2019-02-26T21:35:33.300Z,3.41
2019-02-26T21:38:05.738Z,3.49
2019-02-26T21:40:37.359Z,3.39
2019-02-26T21:43:07.651Z,3.30
2019-02-26T21:45:37.208Z,3.23
2019-02-26T21:48:06.530Z,3.21
2019-02-26T21:50:35.787Z,3.26
2019-02-26T21:53:04.967Z,3.35
2019-02-26T21:55:43.884Z,3.24
2019-02-26T21:58:05.181Z,3.05
2019-02-26T22:00:36.730Z,2.97
2019-02-26T22:03:07.899Z,2.98
2019-02-26T22:05:37.916Z,2.98
2019-02-26T22:08:07.536Z,2.88
2019-02-26T22:10:36.830Z,2.76
2019-02-26T22:13:06.036Z,2.71
2019-02-26T22:15:36.257Z,2.88
2019-02-26T22:18:06.019Z,2.75
2019-02-26T22:20:36.488Z,2.84
2019-02-26T22:23:07.282Z,2.99
2019-02-26T22:25:37.482Z,2.88
2019-02-26T22:28:08.727Z,2.77
2019-02-26T22:30:37.617Z,2.73
2019-02-26T22:33:07.985Z,2.65
2019-02-26T22:35:37.714Z,2.59
2019-02-26T22:38:06.943Z,2.43
2019-02-26T22:40:36.175Z,2.48
2019-02-26T22:43:05.455Z,2.47
2019-02-26T22:45:34.706Z,2.42
2019-02-26T22:48:05.580Z,2.23
2019-02-26T22:50:34.732Z,2.41
2019-02-26T22:53:04.591Z,2.40
2019-02-26T22:55:33.856Z,2.32
2019-02-26T22:58:03.392Z,2.24
2019-02-26T23:01:02.734Z,2.19
2019-02-26T23:03:32.201Z,2.03
2019-02-26T23:06:01.360Z,2.12
2019-02-26T23:08:30.535Z,2.27
2019-02-26T23:10:59.825Z,2.08
2019-02-26T23:13:31.818Z,2.03
2019-02-26T23:16:00.008Z,1.98
2019-02-26T23:18:30.952Z,1.92
2019-02-26T23:21:00.127Z,1.79
2019-02-26T23:23:29.352Z,1.84
2019-02-26T23:25:58.522Z,1.82
2019-02-26T23:28:27.736Z,1.89
2019-02-26T23:30:59.707Z,2.01
2019-02-26T23:33:28.514Z,2.00
2019-02-26T23:35:57.966Z,2.01
2019-02-26T23:38:27.155Z,1.82
2019-02-26T23:40:58.158Z,1.72
2019-02-26T23:43:27.476Z,1.80
2019-02-26T23:45:57.539Z,1.64
2019-02-26T23:48:26.844Z,1.73
2019-02-26T23:50:56.032Z,1.77
2019-02-26T23:53:25.231Z,1.63
2019-02-26T23:55:54.428Z,1.73
2019-02-26T23:58:23.567Z,1.50
